KHIE/HIE METAR and TAF weather

Enter ICAO airport designator
Station Type Date Time Source
KHIE METAR 2022/01/29 09:52 UTC NOAA

KHIE 290952Z AUTO 36006KT 10SM BKN035 OVC095 M14/M19 A2999 RMK AO2 SLP178 T11441194


Station Type Date Time Source
KHIE Decoded METAR 2022/01/29 09:52 UTC NOAA

MT WASHINGTON REGIONAL AIRPORT , NH, United States (KHIE) 44-22N 71-33W 318M
Jan 29, 2022 - 04:52 AM EST / 2022.01.29 0952 UTC
Wind: from the N (360 degrees) at 7 MPH (6 KT):0
Visibility: 10 mile(s):0
Sky conditions: overcast
Temperature: 6.1 F (-14.4 C)
Windchill: -5 F (-21 C):2
Dew Point: -2.9 F (-19.4 C)
Relative Humidity: 65%
Pressure (altimeter): 29.99 in. Hg (1015 hPa)
ob: KHIE 290952Z AUTO 36006KT 10SM BKN035 OVC095 M14/M19 A2999 RMK AO2 SLP178 T11441194
cycle: 10

Station Type Date Time Source
KHIE TAF 2022/01/29 09:21 UTC NOAA

TAF
AMD KHIE 290919Z 2909/3006 02007KT P6SM OVC050
FM291400 04010KT P6SM SCT030 BKN050
FM291700 02010G17KT 3SM -SN OVC020
FM292100 35010KT 2SM -SN OVC012

Example: see airport list